sensor_id;sensor_type;location;lat;lon;timestamp;temperature;humidity
22682;DHT22;11508;50.856;4.380;2023-04-19T00:01:23;10.90;99.90
22682;DHT22;11508;50.856;4.380;2023-04-19T00:03:49;10.90;99.90
22682;DHT22;11508;50.856;4.380;2023-04-19T00:06:15;10.90;99.90
22682;DHT22;11508;50.856;4.380;2023-04-19T00:08:42;11.00;99.90
22682;DHT22;11508;50.856;4.380;2023-04-19T00:11:08;11.00;99.90
22682;DHT22;11508;50.856;4.380;2023-04-19T00:13:35;10.90;99.90
22682;DHT22;11508;50.856;4.380;2023-04-19T00:16:01;10.90;99.90
22682;DHT22;11508;50.856;4.380;2023-04-19T00:18:26;10.80;99.90
22682;DHT22;11508;50.856;4.380;2023-04-19T00:20:52;10.80;99.90
22682;DHT22;11508;50.856;4.380;2023-04-19T00:23:18;10.80;99.90
22682;DHT22;11508;50.856;4.380;2023-04-19T00:25:45;10.80;99.90
22682;DHT22;11508;50.856;4.380;2023-04-19T00:28:12;11.00;99.90
22682;DHT22;11508;50.856;4.380;2023-04-19T00:30:37;10.90;99.90
22682;DHT22;11508;50.856;4.380;2023-04-19T00:33:04;10.60;99.90
22682;DHT22;11508;50.856;4.380;2023-04-19T00:35:39;10.40;99.90
22682;DHT22;11508;50.856;4.380;2023-04-19T00:38:06;10.50;99.90
22682;DHT22;11508;50.856;4.380;2023-04-19T00:40:32;10.40;99.90
22682;DHT22;11508;50.856;4.380;2023-04-19T00:42:57;10.60;99.90
22682;DHT22;11508;50.856;4.380;2023-04-19T00:45:24;10.60;99.90
22682;DHT22;11508;50.856;4.380;2023-04-19T00:47:51;10.60;99.90
22682;DHT22;11508;50.856;4.380;2023-04-19T00:50:16;10.60;99.90
22682;DHT22;11508;50.856;4.380;2023-04-19T00:52:43;10.50;99.90
22682;DHT22;11508;50.856;4.380;2023-04-19T00:55:09;10.50;99.90
22682;DHT22;11508;50.856;4.380;2023-04-19T00:57:36;10.40;99.90
22682;DHT22;11508;50.856;4.380;2023-04-19T01:00:02;10.40;99.90
22682;DHT22;11508;50.856;4.380;2023-04-19T01:02:30;10.50;99.90
22682;DHT22;11508;50.856;4.380;2023-04-19T01:04:56;10.40;99.90
22682;DHT22;11508;50.856;4.380;2023-04-19T01:07:22;10.30;99.90
22682;DHT22;11508;50.856;4.380;2023-04-19T01:09:48;10.30;99.90
22682;DHT22;11508;50.856;4.380;2023-04-19T01:12:14;10.10;99.90
22682;DHT22;11508;50.856;4.380;2023-04-19T01:14:39;10.10;99.90
22682;DHT22;11508;50.856;4.380;2023-04-19T01:17:06;10.20;1.00
22682;DHT22;11508;50.856;4.380;2023-04-19T01:19:33;10.20;99.90
22682;DHT22;11508;50.856;4.380;2023-04-19T01:21:59;10.10;1.00
22682;DHT22;11508;50.856;4.380;2023-04-19T01:24:27;10.10;1.00
22682;DHT22;11508;50.856;4.380;2023-04-19T01:26:53;10.20;1.00
22682;DHT22;11508;50.856;4.380;2023-04-19T01:29:18;10.20;1.00
22682;DHT22;11508;50.856;4.380;2023-04-19T01:31:48;10.20;99.90
22682;DHT22;11508;50.856;4.380;2023-04-19T01:34:18;10.10;99.90
22682;DHT22;11508;50.856;4.380;2023-04-19T01:36:44;10.00;99.90
22682;DHT22;11508;50.856;4.380;2023-04-19T01:39:10;9.90;1.00
22682;DHT22;11508;50.856;4.380;2023-04-19T01:41:36;9.80;1.00
22682;DHT22;11508;50.856;4.380;2023-04-19T01:44:02;10.00;1.00
22682;DHT22;11508;50.856;4.380;2023-04-19T01:46:27;9.90;1.00
22682;DHT22;11508;50.856;4.380;2023-04-19T01:48:53;9.80;1.00
22682;DHT22;11508;50.856;4.380;2023-04-19T01:51:19;9.90;1.00
22682;DHT22;11508;50.856;4.380;2023-04-19T01:53:46;9.80;1.00
22682;DHT22;11508;50.856;4.380;2023-04-19T01:56:16;10.00;1.00
22682;DHT22;11508;50.856;4.380;2023-04-19T01:58:42;10.10;1.00
22682;DHT22;11508;50.856;4.380;2023-04-19T02:01:08;10.10;1.00
22682;DHT22;11508;50.856;4.380;2023-04-19T02:03:39;10.10;99.90
22682;DHT22;11508;50.856;4.380;2023-04-19T02:06:05;10.10;1.00
22682;DHT22;11508;50.856;4.380;2023-04-19T02:08:34;10.20;99.90
22682;DHT22;11508;50.856;4.380;2023-04-19T02:11:04;10.40;99.90
22682;DHT22;11508;50.856;4.380;2023-04-19T02:13:30;10.70;99.90
22682;DHT22;11508;50.856;4.380;2023-04-19T02:15:55;10.60;99.90
22682;DHT22;11508;50.856;4.380;2023-04-19T02:18:21;10.50;99.90
22682;DHT22;11508;50.856;4.380;2023-04-19T02:20:48;10.40;99.90
22682;DHT22;11508;50.856;4.380;2023-04-19T02:23:14;10.50;99.90
22682;DHT22;11508;50.856;4.380;2023-04-19T02:25:40;10.60;99.90
22682;DHT22;11508;50.856;4.380;2023-04-19T02:28:06;10.40;99.90
22682;DHT22;11508;50.856;4.380;2023-04-19T02:30:31;10.60;99.90
22682;DHT22;11508;50.856;4.380;2023-04-19T02:32:57;10.60;99.90
22682;DHT22;11508;50.856;4.380;2023-04-19T02:35:23;10.60;99.90
22682;DHT22;11508;50.856;4.380;2023-04-19T02:37:48;10.70;99.90
22682;DHT22;11508;50.856;4.380;2023-04-19T02:40:14;10.60;99.90
22682;DHT22;11508;50.856;4.380;2023-04-19T02:42:40;10.50;99.90
22682;DHT22;11508;50.856;4.380;2023-04-19T02:45:06;10.60;99.90
22682;DHT22;11508;50.856;4.380;2023-04-19T02:47:32;10.70;99.90
22682;DHT22;11508;50.856;4.380;2023-04-19T02:49:59;10.60;99.90
22682;DHT22;11508;50.856;4.380;2023-04-19T02:52:25;10.70;99.90
22682;DHT22;11508;50.856;4.380;2023-04-19T02:54:52;10.80;99.90
22682;DHT22;11508;50.856;4.380;2023-04-19T02:57:18;10.80;99.90
22682;DHT22;11508;50.856;4.380;2023-04-19T02:59:43;10.70;99.90
22682;DHT22;11508;50.856;4.380;2023-04-19T03:02:09;10.70;99.90
22682;DHT22;11508;50.856;4.380;2023-04-19T03:04:35;10.70;99.90
22682;DHT22;11508;50.856;4.380;2023-04-19T03:07:00;10.70;99.90
22682;DHT22;11508;50.856;4.380;2023-04-19T03:09:26;10.70;99.90
22682;DHT22;11508;50.856;4.380;2023-04-19T03:11:52;10.80;99.90
22682;DHT22;11508;50.856;4.380;2023-04-19T03:14:18;10.80;99.90
22682;DHT22;11508;50.856;4.380;2023-04-19T03:16:43;10.70;99.90
22682;DHT22;11508;50.856;4.380;2023-04-19T03:19:09;10.70;99.90
22682;DHT22;11508;50.856;4.380;2023-04-19T03:21:35;10.80;99.90
22682;DHT22;11508;50.856;4.380;2023-04-19T03:24:01;10.70;99.90
22682;DHT22;11508;50.856;4.380;2023-04-19T03:26:26;10.80;99.90
22682;DHT22;11508;50.856;4.380;2023-04-19T03:28:52;11.00;99.90
22682;DHT22;11508;50.856;4.380;2023-04-19T03:31:18;10.80;99.90
22682;DHT22;11508;50.856;4.380;2023-04-19T03:33:43;10.90;99.90
22682;DHT22;11508;50.856;4.380;2023-04-19T03:36:09;10.80;99.90
22682;DHT22;11508;50.856;4.380;2023-04-19T03:38:35;10.70;99.90
22682;DHT22;11508;50.856;4.380;2023-04-19T03:41:01;10.80;99.90
22682;DHT22;11508;50.856;4.380;2023-04-19T03:43:27;10.80;99.90
22682;DHT22;11508;50.856;4.380;2023-04-19T03:45:52;10.90;99.90
22682;DHT22;11508;50.856;4.380;2023-04-19T03:48:18;10.80;99.90
22682;DHT22;11508;50.856;4.380;2023-04-19T03:50:44;10.70;99.90
22682;DHT22;11508;50.856;4.380;2023-04-19T03:53:09;10.60;99.90
22682;DHT22;11508;50.856;4.380;2023-04-19T03:55:35;10.80;99.90
22682;DHT22;11508;50.856;4.380;2023-04-19T03:58:01;10.70;99.90
22682;DHT22;11508;50.856;4.380;2023-04-19T04:00:26;10.70;99.90
22682;DHT22;11508;50.856;4.380;2023-04-19T04:02:52;10.60;99.90
22682;DHT22;11508;50.856;4.380;2023-04-19T04:05:18;10.70;99.90
22682;DHT22;11508;50.856;4.380;2023-04-19T04:07:43;10.60;99.90
22682;DHT22;11508;50.856;4.380;2023-04-19T04:10:10;10.60;99.90
22682;DHT22;11508;50.856;4.380;2023-04-19T04:12:35;10.60;1.00
22682;DHT22;11508;50.856;4.380;2023-04-19T04:15:01;10.60;1.00
22682;DHT22;11508;50.856;4.380;2023-04-19T04:17:27;10.50;1.00
22682;DHT22;11508;50.856;4.380;2023-04-19T04:19:53;10.60;1.00
22682;DHT22;11508;50.856;4.380;2023-04-19T04:22:19;10.60;1.00
22682;DHT22;11508;50.856;4.380;2023-04-19T04:24:45;10.70;1.00
22682;DHT22;11508;50.856;4.380;2023-04-19T04:27:11;10.70;99.90
22682;DHT22;11508;50.856;4.380;2023-04-19T04:29:37;10.60;99.90
22682;DHT22;11508;50.856;4.380;2023-04-19T04:32:07;10.80;1.00
22682;DHT22;11508;50.856;4.380;2023-04-19T04:34:34;10.80;99.90
22682;DHT22;11508;50.856;4.380;2023-04-19T04:37:01;10.80;99.90
22682;DHT22;11508;50.856;4.380;2023-04-19T04:39:28;10.80;99.90
22682;DHT22;11508;50.856;4.380;2023-04-19T04:41:53;10.50;1.00
22682;DHT22;11508;50.856;4.380;2023-04-19T04:44:22;10.60;1.00
22682;DHT22;11508;50.856;4.380;2023-04-19T04:46:48;10.70;1.00
22682;DHT22;11508;50.856;4.380;2023-04-19T04:49:13;10.70;99.90
22682;DHT22;11508;50.856;4.380;2023-04-19T04:51:39;10.70;1.00
22682;DHT22;11508;50.856;4.380;2023-04-19T04:54:05;10.70;1.00
22682;DHT22;11508;50.856;4.380;2023-04-19T04:56:31;10.60;1.00
22682;DHT22;11508;50.856;4.380;2023-04-19T04:58:56;10.50;1.00
22682;DHT22;11508;50.856;4.380;2023-04-19T05:01:22;10.60;1.00
22682;DHT22;11508;50.856;4.380;2023-04-19T05:03:49;10.60;1.00
22682;DHT22;11508;50.856;4.380;2023-04-19T05:06:15;10.60;1.00
22682;DHT22;11508;50.856;4.380;2023-04-19T05:08:40;10.70;1.00
22682;DHT22;11508;50.856;4.380;2023-04-19T05:11:06;10.60;1.00
22682;DHT22;11508;50.856;4.380;2023-04-19T05:13:33;10.70;1.00
22682;DHT22;11508;50.856;4.380;2023-04-19T05:15:58;10.70;1.00
22682;DHT22;11508;50.856;4.380;2023-04-19T05:18:24;10.70;1.00
22682;DHT22;11508;50.856;4.380;2023-04-19T05:20:50;10.60;1.00
22682;DHT22;11508;50.856;4.380;2023-04-19T05:23:15;10.60;1.00
22682;DHT22;11508;50.856;4.380;2023-04-19T05:25:41;10.60;1.00
22682;DHT22;11508;50.856;4.380;2023-04-19T05:28:07;10.70;1.00
22682;DHT22;11508;50.856;4.380;2023-04-19T05:30:32;10.80;1.00
22682;DHT22;11508;50.856;4.380;2023-04-19T05:32:58;10.80;1.00
22682;DHT22;11508;50.856;4.380;2023-04-19T05:35:24;10.70;1.00
22682;DHT22;11508;50.856;4.380;2023-04-19T05:37:50;10.70;1.00
22682;DHT22;11508;50.856;4.380;2023-04-19T05:40:16;10.90;1.00
22682;DHT22;11508;50.856;4.380;2023-04-19T05:42:41;10.90;1.00
22682;DHT22;11508;50.856;4.380;2023-04-19T05:45:08;10.70;1.00
22682;DHT22;11508;50.856;4.380;2023-04-19T05:47:34;10.80;1.00
22682;DHT22;11508;50.856;4.380;2023-04-19T05:49:59;10.70;1.00
22682;DHT22;11508;50.856;4.380;2023-04-19T05:52:25;10.80;1.00
22682;DHT22;11508;50.856;4.380;2023-04-19T05:54:51;10.90;1.00
22682;DHT22;11508;50.856;4.380;2023-04-19T05:57:16;10.90;1.00
22682;DHT22;11508;50.856;4.380;2023-04-19T05:59:42;11.00;1.00
22682;DHT22;11508;50.856;4.380;2023-04-19T06:02:08;11.00;1.00
22682;DHT22;11508;50.856;4.380;2023-04-19T06:04:34;10.90;1.00
22682;DHT22;11508;50.856;4.380;2023-04-19T06:07:00;10.90;1.00
22682;DHT22;11508;50.856;4.380;2023-04-19T06:09:25;10.80;1.00
22682;DHT22;11508;50.856;4.380;2023-04-19T06:11:51;10.90;1.00
22682;DHT22;11508;50.856;4.380;2023-04-19T06:14:19;11.00;1.00
22682;DHT22;11508;50.856;4.380;2023-04-19T06:16:44;10.90;1.00
22682;DHT22;11508;50.856;4.380;2023-04-19T06:19:10;11.10;1.00
22682;DHT22;11508;50.856;4.380;2023-04-19T06:21:35;11.00;1.00
22682;DHT22;11508;50.856;4.380;2023-04-19T06:24:01;11.10;1.00
22682;DHT22;11508;50.856;4.380;2023-04-19T06:26:27;11.20;1.00
22682;DHT22;11508;50.856;4.380;2023-04-19T06:28:54;11.30;1.00
22682;DHT22;11508;50.856;4.380;2023-04-19T06:31:19;11.30;1.00
22682;DHT22;11508;50.856;4.380;2023-04-19T06:33:47;11.40;1.00
22682;DHT22;11508;50.856;4.380;2023-04-19T06:36:12;11.30;1.00
22682;DHT22;11508;50.856;4.380;2023-04-19T06:38:38;11.60;1.00
22682;DHT22;11508;50.856;4.380;2023-04-19T06:41:06;11.60;1.00
22682;DHT22;11508;50.856;4.380;2023-04-19T06:43:32;11.60;1.00
22682;DHT22;11508;50.856;4.380;2023-04-19T06:46:02;11.80;1.00
22682;DHT22;11508;50.856;4.380;2023-04-19T06:48:29;11.90;99.90
22682;DHT22;11508;50.856;4.380;2023-04-19T06:50:55;12.20;99.90
22682;DHT22;11508;50.856;4.380;2023-04-19T06:53:21;12.40;99.90
22682;DHT22;11508;50.856;4.380;2023-04-19T06:55:47;12.50;99.90
22682;DHT22;11508;50.856;4.380;2023-04-19T06:58:13;12.60;99.90
22682;DHT22;11508;50.856;4.380;2023-04-19T07:00:39;12.70;99.90
22682;DHT22;11508;50.856;4.380;2023-04-19T07:03:04;12.70;99.90
22682;DHT22;11508;50.856;4.380;2023-04-19T07:05:30;12.70;99.90
22682;DHT22;11508;50.856;4.380;2023-04-19T07:07:56;13.00;99.90
22682;DHT22;11508;50.856;4.380;2023-04-19T07:10:22;12.90;94.50
22682;DHT22;11508;50.856;4.380;2023-04-19T07:12:48;12.80;99.90
22682;DHT22;11508;50.856;4.380;2023-04-19T07:15:14;12.70;99.90
22682;DHT22;11508;50.856;4.380;2023-04-19T07:17:40;12.60;99.90
22682;DHT22;11508;50.856;4.380;2023-04-19T07:20:06;12.70;99.90
22682;DHT22;11508;50.856;4.380;2023-04-19T07:22:32;12.90;99.90
22682;DHT22;11508;50.856;4.380;2023-04-19T07:24:58;13.50;38.20
22682;DHT22;11508;50.856;4.380;2023-04-19T07:27:24;13.80;99.90
22682;DHT22;11508;50.856;4.380;2023-04-19T07:29:51;13.70;99.90
22682;DHT22;11508;50.856;4.380;2023-04-19T07:32:18;13.70;99.90
22682;DHT22;11508;50.856;4.380;2023-04-19T07:34:44;13.90;99.90
22682;DHT22;11508;50.856;4.380;2023-04-19T07:37:10;14.30;99.90
22682;DHT22;11508;50.856;4.380;2023-04-19T07:39:37;14.50;1.00
22682;DHT22;11508;50.856;4.380;2023-04-19T07:42:03;14.60;1.00
22682;DHT22;11508;50.856;4.380;2023-04-19T07:44:28;14.80;1.00
22682;DHT22;11508;50.856;4.380;2023-04-19T07:46:54;14.90;99.90
22682;DHT22;11508;50.856;4.380;2023-04-19T07:49:20;15.10;99.90
22682;DHT22;11508;50.856;4.380;2023-04-19T07:51:46;14.80;99.90
22682;DHT22;11508;50.856;4.380;2023-04-19T07:54:11;14.50;99.90
22682;DHT22;11508;50.856;4.380;2023-04-19T07:56:37;14.10;99.90
22682;DHT22;11508;50.856;4.380;2023-04-19T07:59:02;14.30;1.00
22682;DHT22;11508;50.856;4.380;2023-04-19T08:01:28;14.50;1.00
22682;DHT22;11508;50.856;4.380;2023-04-19T08:03:54;14.70;99.90
22682;DHT22;11508;50.856;4.380;2023-04-19T08:06:21;15.00;1.00
22682;DHT22;11508;50.856;4.380;2023-04-19T08:08:47;15.30;99.90
22682;DHT22;11508;50.856;4.380;2023-04-19T08:11:13;15.20;39.80
22682;DHT22;11508;50.856;4.380;2023-04-19T08:13:39;15.20;1.00
22682;DHT22;11508;50.856;4.380;2023-04-19T08:16:05;15.10;1.00
22682;DHT22;11508;50.856;4.380;2023-04-19T08:18:31;15.60;1.00
22682;DHT22;11508;50.856;4.380;2023-04-19T08:20:57;16.50;1.00
22682;DHT22;11508;50.856;4.380;2023-04-19T08:23:23;16.90;99.90
22682;DHT22;11508;50.856;4.380;2023-04-19T08:25:49;17.50;48.60
22682;DHT22;11508;50.856;4.380;2023-04-19T08:28:16;18.40;1.00
22682;DHT22;11508;50.856;4.380;2023-04-19T08:30:41;18.20;99.90
22682;DHT22;11508;50.856;4.380;2023-04-19T08:33:07;17.00;99.90
22682;DHT22;11508;50.856;4.380;2023-04-19T08:35:39;16.30;1.00
22682;DHT22;11508;50.856;4.380;2023-04-19T08:38:11;16.40;1.00
22682;DHT22;11508;50.856;4.380;2023-04-19T08:40:45;17.10;99.90
22682;DHT22;11508;50.856;4.380;2023-04-19T08:43:11;17.10;99.90
22682;DHT22;11508;50.856;4.380;2023-04-19T08:45:38;16.80;99.90
22682;DHT22;11508;50.856;4.380;2023-04-19T08:48:05;17.40;99.90
22682;DHT22;11508;50.856;4.380;2023-04-19T08:50:34;17.20;99.90
22682;DHT22;11508;50.856;4.380;2023-04-19T08:53:01;17.40;99.90
22682;DHT22;11508;50.856;4.380;2023-04-19T08:55:27;17.90;99.90
22682;DHT22;11508;50.856;4.380;2023-04-19T08:57:54;18.70;99.90
22682;DHT22;11508;50.856;4.380;2023-04-19T09:00:20;19.10;99.90
22682;DHT22;11508;50.856;4.380;2023-04-19T09:02:48;19.50;88.00
22682;DHT22;11508;50.856;4.380;2023-04-19T09:05:15;19.60;47.40
22682;DHT22;11508;50.856;4.380;2023-04-19T09:07:41;19.50;41.30
22682;DHT22;11508;50.856;4.380;2023-04-19T09:10:12;20.40;1.10
22682;DHT22;11508;50.856;4.380;2023-04-19T09:12:39;19.90;1.00
22682;DHT22;11508;50.856;4.380;2023-04-19T09:15:06;19.70;1.00
22682;DHT22;11508;50.856;4.380;2023-04-19T09:17:39;18.90;1.00
22682;DHT22;11508;50.856;4.380;2023-04-19T09:20:05;19.60;1.00
22682;DHT22;11508;50.856;4.380;2023-04-19T09:22:33;20.60;1.00
22682;DHT22;11508;50.856;4.380;2023-04-19T09:24:59;20.60;1.00
22682;DHT22;11508;50.856;4.380;2023-04-19T09:27:29;20.30;1.00
22682;DHT22;11508;50.856;4.380;2023-04-19T09:29:56;20.60;1.00
22682;DHT22;11508;50.856;4.380;2023-04-19T09:32:23;20.00;1.00
22682;DHT22;11508;50.856;4.380;2023-04-19T09:35:00;19.20;1.00
22682;DHT22;11508;50.856;4.380;2023-04-19T09:37:26;19.20;1.00
22682;DHT22;11508;50.856;4.380;2023-04-19T09:39:52;19.80;1.00
22682;DHT22;11508;50.856;4.380;2023-04-19T09:42:18;19.70;1.00
22682;DHT22;11508;50.856;4.380;2023-04-19T09:44:57;20.80;1.00
22682;DHT22;11508;50.856;4.380;2023-04-19T09:47:27;20.50;1.00
22682;DHT22;11508;50.856;4.380;2023-04-19T09:50:10;19.50;1.00
22682;DHT22;11508;50.856;4.380;2023-04-19T09:52:36;18.70;1.00
22682;DHT22;11508;50.856;4.380;2023-04-19T09:55:05;19.00;1.00
22682;DHT22;11508;50.856;4.380;2023-04-19T09:57:33;19.10;1.00
22682;DHT22;11508;50.856;4.380;2023-04-19T09:59:59;19.60;1.00
22682;DHT22;11508;50.856;4.380;2023-04-19T10:02:30;20.10;1.00
22682;DHT22;11508;50.856;4.380;2023-04-19T10:04:57;20.60;1.00
22682;DHT22;11508;50.856;4.380;2023-04-19T10:07:24;21.80;1.00
22682;DHT22;11508;50.856;4.380;2023-04-19T10:09:50;21.80;1.00
22682;DHT22;11508;50.856;4.380;2023-04-19T10:12:19;21.50;1.00
22682;DHT22;11508;50.856;4.380;2023-04-19T10:14:45;22.20;1.00
22682;DHT22;11508;50.856;4.380;2023-04-19T10:17:12;22.80;1.00
22682;DHT22;11508;50.856;4.380;2023-04-19T10:19:39;23.40;1.00
22682;DHT22;11508;50.856;4.380;2023-04-19T10:22:05;22.60;1.00
22682;DHT22;11508;50.856;4.380;2023-04-19T10:24:32;22.80;1.00
22682;DHT22;11508;50.856;4.380;2023-04-19T10:27:10;23.30;1.00
22682;DHT22;11508;50.856;4.380;2023-04-19T10:29:55;22.40;1.00
22682;DHT22;11508;50.856;4.380;2023-04-19T10:32:43;22.80;1.00
22682;DHT22;11508;50.856;4.380;2023-04-19T10:35:19;22.00;1.00
22682;DHT22;11508;50.856;4.380;2023-04-19T10:38:04;20.60;1.00
22682;DHT22;11508;50.856;4.380;2023-04-19T10:43:16;20.40;1.00
22682;DHT22;11508;50.856;4.380;2023-04-19T10:45:45;19.60;1.00
22682;DHT22;11508;50.856;4.380;2023-04-19T10:51:10;19.10;1.00
22682;DHT22;11508;50.856;4.380;2023-04-19T10:53:45;18.90;1.00
22682;DHT22;11508;50.856;4.380;2023-04-19T10:56:12;18.40;1.00
22682;DHT22;11508;50.856;4.380;2023-04-19T11:04:23;20.20;1.00
22682;DHT22;11508;50.856;4.380;2023-04-19T11:11:52;18.40;1.00
22682;DHT22;11508;50.856;4.380;2023-04-19T11:14:19;17.80;1.00
22682;DHT22;11508;50.856;4.380;2023-04-19T11:16:46;18.40;1.00
22682;DHT22;11508;50.856;4.380;2023-04-19T11:19:15;19.20;1.00
22682;DHT22;11508;50.856;4.380;2023-04-19T11:21:41;19.80;1.00
22682;DHT22;11508;50.856;4.380;2023-04-19T11:24:11;20.60;1.00
22682;DHT22;11508;50.856;4.380;2023-04-19T11:26:37;21.60;1.00
22682;DHT22;11508;50.856;4.380;2023-04-19T11:29:03;22.00;1.00
22682;DHT22;11508;50.856;4.380;2023-04-19T11:31:33;21.60;99.90
22682;DHT22;11508;50.856;4.380;2023-04-19T11:33:59;21.90;99.90
22682;DHT22;11508;50.856;4.380;2023-04-19T11:36:25;22.80;99.90
22682;DHT22;11508;50.856;4.380;2023-04-19T11:38:52;22.60;99.90
22682;DHT22;11508;50.856;4.380;2023-04-19T11:41:18;22.30;99.90
22682;DHT22;11508;50.856;4.380;2023-04-19T11:43:43;22.10;99.90
22682;DHT22;11508;50.856;4.380;2023-04-19T11:46:12;21.90;99.90
22682;DHT22;11508;50.856;4.380;2023-04-19T11:48:51;21.70;99.90
22682;DHT22;11508;50.856;4.380;2023-04-19T11:51:17;21.30;99.90
22682;DHT22;11508;50.856;4.380;2023-04-19T11:53:43;20.80;99.90
22682;DHT22;11508;50.856;4.380;2023-04-19T11:56:09;21.40;99.90
22682;DHT22;11508;50.856;4.380;2023-04-19T11:58:41;21.70;99.90
22682;DHT22;11508;50.856;4.380;2023-04-19T12:01:13;21.70;99.90
22682;DHT22;11508;50.856;4.380;2023-04-19T12:03:53;21.40;99.90
22682;DHT22;11508;50.856;4.380;2023-04-19T12:06:25;21.00;99.90
22682;DHT22;11508;50.856;4.380;2023-04-19T12:08:55;20.30;99.90
22682;DHT22;11508;50.856;4.380;2023-04-19T12:11:25;20.30;99.90
22682;DHT22;11508;50.856;4.380;2023-04-19T12:14:09;20.40;99.90
22682;DHT22;11508;50.856;4.380;2023-04-19T12:16:34;20.00;99.90
22682;DHT22;11508;50.856;4.380;2023-04-19T12:19:13;19.90;99.90
22682;DHT22;11508;50.856;4.380;2023-04-19T12:21:39;20.30;99.90
22682;DHT22;11508;50.856;4.380;2023-04-19T12:24:06;20.70;99.90
22682;DHT22;11508;50.856;4.380;2023-04-19T12:26:32;20.40;99.90
22682;DHT22;11508;50.856;4.380;2023-04-19T12:28:59;20.60;99.90
22682;DHT22;11508;50.856;4.380;2023-04-19T12:31:27;21.10;99.90
22682;DHT22;11508;50.856;4.380;2023-04-19T12:33:56;21.40;99.90
22682;DHT22;11508;50.856;4.380;2023-04-19T12:36:23;21.50;99.90
22682;DHT22;11508;50.856;4.380;2023-04-19T12:38:49;21.60;99.90
22682;DHT22;11508;50.856;4.380;2023-04-19T12:41:16;21.70;99.90
22682;DHT22;11508;50.856;4.380;2023-04-19T12:43:41;21.90;99.90
22682;DHT22;11508;50.856;4.380;2023-04-19T12:46:07;21.90;99.90
22682;DHT22;11508;50.856;4.380;2023-04-19T12:48:33;21.80;99.90
22682;DHT22;11508;50.856;4.380;2023-04-19T12:50:59;22.30;99.90
22682;DHT22;11508;50.856;4.380;2023-04-19T12:53:24;22.50;99.90
22682;DHT22;11508;50.856;4.380;2023-04-19T12:55:50;21.70;99.90
22682;DHT22;11508;50.856;4.380;2023-04-19T12:58:16;21.40;99.90
22682;DHT22;11508;50.856;4.380;2023-04-19T13:00:43;21.00;99.90
22682;DHT22;11508;50.856;4.380;2023-04-19T13:03:09;20.70;99.90
22682;DHT22;11508;50.856;4.380;2023-04-19T13:05:36;20.70;99.90
22682;DHT22;11508;50.856;4.380;2023-04-19T13:08:02;20.70;99.90
22682;DHT22;11508;50.856;4.380;2023-04-19T13:10:28;20.70;99.90
22682;DHT22;11508;50.856;4.380;2023-04-19T13:12:53;21.00;99.90
22682;DHT22;11508;50.856;4.380;2023-04-19T13:15:19;20.70;99.90
22682;DHT22;11508;50.856;4.380;2023-04-19T13:17:45;20.00;99.90
22682;DHT22;11508;50.856;4.380;2023-04-19T13:20:11;19.60;99.90
22682;DHT22;11508;50.856;4.380;2023-04-19T13:22:37;19.50;99.90
22682;DHT22;11508;50.856;4.380;2023-04-19T13:25:03;19.50;99.90
22682;DHT22;11508;50.856;4.380;2023-04-19T13:27:29;20.00;99.90
22682;DHT22;11508;50.856;4.380;2023-04-19T13:29:55;20.20;99.90
22682;DHT22;11508;50.856;4.380;2023-04-19T13:32:21;20.20;99.90
22682;DHT22;11508;50.856;4.380;2023-04-19T13:34:47;20.10;99.90
22682;DHT22;11508;50.856;4.380;2023-04-19T13:37:13;20.30;99.90
22682;DHT22;11508;50.856;4.380;2023-04-19T13:39:41;20.20;99.90
22682;DHT22;11508;50.856;4.380;2023-04-19T13:42:07;20.10;99.90
22682;DHT22;11508;50.856;4.380;2023-04-19T13:44:33;20.00;99.90
22682;DHT22;11508;50.856;4.380;2023-04-19T13:47:00;19.90;99.90
22682;DHT22;11508;50.856;4.380;2023-04-19T13:49:27;19.90;99.90
22682;DHT22;11508;50.856;4.380;2023-04-19T13:51:54;19.50;99.90
22682;DHT22;11508;50.856;4.380;2023-04-19T13:54:20;19.30;99.90
22682;DHT22;11508;50.856;4.380;2023-04-19T13:56:46;19.30;99.90
22682;DHT22;11508;50.856;4.380;2023-04-19T13:59:12;19.20;99.90
22682;DHT22;11508;50.856;4.380;2023-04-19T14:01:37;18.60;99.90
22682;DHT22;11508;50.856;4.380;2023-04-19T14:04:03;17.80;99.90
22682;DHT22;11508;50.856;4.380;2023-04-19T14:06:29;17.70;99.90
22682;DHT22;11508;50.856;4.380;2023-04-19T14:08:55;17.50;99.90
22682;DHT22;11508;50.856;4.380;2023-04-19T14:11:21;17.40;99.90
22682;DHT22;11508;50.856;4.380;2023-04-19T14:13:49;17.60;99.90
22682;DHT22;11508;50.856;4.380;2023-04-19T14:16:15;17.90;99.90
22682;DHT22;11508;50.856;4.380;2023-04-19T14:18:40;17.60;99.90
22682;DHT22;11508;50.856;4.380;2023-04-19T14:21:06;17.60;99.90
22682;DHT22;11508;50.856;4.380;2023-04-19T14:23:32;17.60;99.90
22682;DHT22;11508;50.856;4.380;2023-04-19T14:25:58;17.70;99.90
22682;DHT22;11508;50.856;4.380;2023-04-19T14:28:23;17.70;99.90
22682;DHT22;11508;50.856;4.380;2023-04-19T14:30:49;17.60;99.90
22682;DHT22;11508;50.856;4.380;2023-04-19T14:33:16;17.50;99.90
22682;DHT22;11508;50.856;4.380;2023-04-19T14:35:41;17.40;99.90
22682;DHT22;11508;50.856;4.380;2023-04-19T14:38:07;17.10;99.90
22682;DHT22;11508;50.856;4.380;2023-04-19T14:40:33;17.20;99.90
22682;DHT22;11508;50.856;4.380;2023-04-19T14:42:59;17.40;99.90
22682;DHT22;11508;50.856;4.380;2023-04-19T14:45:25;17.40;99.90
22682;DHT22;11508;50.856;4.380;2023-04-19T14:47:52;17.40;99.90
22682;DHT22;11508;50.856;4.380;2023-04-19T14:50:17;17.40;99.90
22682;DHT22;11508;50.856;4.380;2023-04-19T14:52:43;17.10;99.90
22682;DHT22;11508;50.856;4.380;2023-04-19T14:55:10;16.80;99.90
22682;DHT22;11508;50.856;4.380;2023-04-19T14:57:35;17.00;99.90
22682;DHT22;11508;50.856;4.380;2023-04-19T15:00:02;17.10;99.90
22682;DHT22;11508;50.856;4.380;2023-04-19T15:02:29;17.20;99.90
22682;DHT22;11508;50.856;4.380;2023-04-19T15:04:55;17.00;99.90
22682;DHT22;11508;50.856;4.380;2023-04-19T15:07:21;17.00;99.90
22682;DHT22;11508;50.856;4.380;2023-04-19T15:09:47;16.90;99.90
22682;DHT22;11508;50.856;4.380;2023-04-19T15:12:12;17.10;99.90
22682;DHT22;11508;50.856;4.380;2023-04-19T15:14:38;17.20;99.90
22682;DHT22;11508;50.856;4.380;2023-04-19T15:17:04;17.20;99.90
22682;DHT22;11508;50.856;4.380;2023-04-19T15:19:30;17.10;99.90
22682;DHT22;11508;50.856;4.380;2023-04-19T15:21:56;17.20;99.90
22682;DHT22;11508;50.856;4.380;2023-04-19T15:24:23;17.20;99.90
22682;DHT22;11508;50.856;4.380;2023-04-19T15:26:49;17.20;99.90
22682;DHT22;11508;50.856;4.380;2023-04-19T15:29:15;17.20;99.90
22682;DHT22;11508;50.856;4.380;2023-04-19T15:31:40;17.20;99.90
22682;DHT22;11508;50.856;4.380;2023-04-19T15:34:06;17.00;99.90
22682;DHT22;11508;50.856;4.380;2023-04-19T15:36:31;16.90;99.90
22682;DHT22;11508;50.856;4.380;2023-04-19T15:38:58;16.70;99.90
22682;DHT22;11508;50.856;4.380;2023-04-19T15:41:24;16.60;99.90
22682;DHT22;11508;50.856;4.380;2023-04-19T15:43:50;16.40;99.90
22682;DHT22;11508;50.856;4.380;2023-04-19T15:46:16;16.30;99.90
22682;DHT22;11508;50.856;4.380;2023-04-19T15:48:43;16.40;99.90
22682;DHT22;11508;50.856;4.380;2023-04-19T15:51:10;16.50;99.90